Time;durP1;ratioP1;P1;durP2;ratioP2;P2;SDS_P1;SDS_P2;PMS_P1;PMS_P2;Temp;Humidity;BMP_temperature;BMP_pressure;BME280_temperature;BME280_humidity;BME280_pressure;Samples;Min_cycle;Max_cycle;Signal;HPM_P1;HPM_P2
2022/05/21 00:02:24;;;;;;;;;;;;;;;;;;5008039;28;20340;-77
2022/05/21 00:04:50;;;;;;;;;;;;;;;;;;4998839;28;19917;-77
2022/05/21 00:07:15;;;;;;;;;;;;;;;;;;5015530;28;19922;-77
2022/05/21 00:09:42;;;;;;;;;;;;;;;;;;5010466;28;19917;-77
2022/05/21 00:12:08;;;;;;;;;;;;;;;;;;5014939;28;19917;-77
2022/05/21 00:14:36;;;;;;;;;;;;;;;;;;5008725;28;20028;-77
2022/05/21 00:17:02;;;;;;;;;;;;;;;;;;5016059;28;19917;-77
2022/05/21 00:19:28;;;;;;;;;;;;;;;;;;5008365;28;20306;-77
2022/05/21 00:21:53;;;;;;;;;;;;;;;;;;5014178;28;20008;-77
2022/05/21 00:24:19;;;;;;;;;;;;;;;;;;5015631;28;19917;-77
2022/05/21 00:26:44;;;;;;;;;;;;;;;;;;5015289;28;19921;-77
2022/05/21 00:29:10;;;;;;;;;;;;;;;;;;5014204;28;19917;-77
2022/05/21 00:31:36;;;;;;;;;;;;;;;;;;5008666;28;19924;-77
2022/05/21 00:34:01;;;;;;;;;;;;;;;;;;5012807;28;19917;-77
2022/05/21 00:36:27;;;;;;;;;;;;;;;;;;5028852;28;19917;-77
2022/05/21 00:38:52;;;;;;;;;;;;;;;;;;5019957;28;20390;-77
2022/05/21 00:41:18;;;;;;;;;;;;;;;;;;5028306;28;19921;-77
2022/05/21 00:43:52;;;;;;;;;;;;;;;;;;5037708;28;19923;-77
2022/05/21 00:46:27;;;;;;;;;;;;;;;;;;5027327;28;19921;-77
2022/05/21 00:49:10;;;;;;;;;;;;;;;;;;5036381;28;20015;-77
2022/05/21 00:51:38;;;;;;;;;;;;;;;;;;5013225;28;19917;-77
2022/05/21 00:54:04;;;;;;;;;;;;;;;;;;5018766;28;19921;-77
2022/05/21 00:56:31;;;;;;;;;;;;;;;;;;5027881;28;19917;-77
2022/05/21 01:01:43;;;;;;;;;;;;;;;;;;5034853;28;19924;-77
2022/05/21 01:04:09;;;;;;;;;;;;;;;;;;5004803;28;20295;-77
2022/05/21 01:06:35;;;;;;;;;;;;;;;;;;5007843;28;19944;-77
2022/05/21 01:09:01;;;;;;;;;;;;;;;;;;4997687;28;19940;-77
2022/05/21 01:11:26;;;;;;;;;;;;;;;;;;5007934;28;19924;-77
2022/05/21 01:13:54;;;;;;;;;;;;;;;;;;5014479;28;19917;-77
2022/05/21 01:16:20;;;;;;;;;;;;;;;;;;5006640;28;19917;-77
2022/05/21 01:18:45;;;;;;;;;;;;;;;;;;5014232;28;19917;-77
2022/05/21 01:21:10;;;;;;;;;;;;;;;;;;5015338;28;19917;-77
2022/05/21 01:23:35;;;;;;;;;;;;;;;;;;5015040;28;19920;-77
2022/05/21 01:26:02;;;;;;;;;;;;;;;;;;5011973;28;19968;-77
2022/05/21 01:28:30;;;;;;;;;;;;;;;;;;5015404;28;19918;-77
2022/05/21 01:30:58;;;;;;;;;;;;;;;;;;4990698;28;19918;-77
2022/05/21 01:33:30;;;;;;;;;;;;;;;;;;4996731;28;19961;-77
2022/05/21 01:35:57;;;;;;;;;;;;;;;;;;5015605;28;20322;-77
2022/05/21 01:38:23;;;;;;;;;;;;;;;;;;5015949;28;19921;-77
2022/05/21 01:40:49;;;;;;;;;;;;;;;;;;5015449;28;20310;-77
2022/05/21 01:46:19;;;;;;;;;;;;;;;;;;4931229;29;19922;-77
2022/05/21 01:48:44;;;;;;;;;;;;;;;;;;4938970;28;19974;-77
2022/05/21 01:51:10;;;;;;;;;;;;;;;;;;4982502;28;19972;-77
2022/05/21 01:53:36;;;;;;;;;;;;;;;;;;4991897;28;20015;-77
2022/05/21 01:56:01;;;;;;;;;;;;;;;;;;4998906;28;19921;-77
2022/05/21 01:58:27;;;;;;;;;;;;;;;;;;4992236;28;20326;-77
2022/05/21 02:00:54;;;;;;;;;;;;;;;;;;4998892;28;20363;-77
2022/05/21 02:03:19;;;;;;;;;;;;;;;;;;5016601;28;19917;-78
2022/05/21 02:05:44;;;;;;;;;;;;;;;;;;5010563;28;19943;-78
2022/05/21 02:08:10;;;;;;;;;;;;;;;;;;5015353;28;20559;-77
2022/05/21 02:10:36;;;;;;;;;;;;;;;;;;5014847;28;19917;-77
2022/05/21 02:13:04;;;;;;;;;;;;;;;;;;5011675;28;19923;-77
2022/05/21 02:15:30;;;;;;;;;;;;;;;;;;5019233;28;19917;-77
2022/05/21 02:17:56;;;;;;;;;;;;;;;;;;5035692;28;20298;-77
2022/05/21 02:20:22;;;;;;;;;;;;;;;;;;5029963;28;19917;-77
2022/05/21 02:22:47;;;;;;;;;;;;;;;;;;5038146;28;19917;-77
2022/05/21 02:25:16;;;;;;;;;;;;;;;;;;5020950;28;19917;-77
2022/05/21 02:27:41;;;;;;;;;;;;;;;;;;5033170;28;19917;-77
2022/05/21 02:30:07;;;;;;;;;;;;;;;;;;5037732;28;20374;-77
2022/05/21 02:32:32;;;;;;;;;;;;;;;;;;5038166;28;19917;-77
2022/05/21 02:34:58;;;;;;;;;;;;;;;;;;5035431;28;19924;-78
2022/05/21 02:40:07;;;;;;;;;;;;;;;;;;5037889;28;19925;-77
2022/05/21 02:42:45;;;;;;;;;;;;;;;;;;5002445;28;19917;-77
2022/05/21 02:45:13;;;;;;;;;;;;;;;;;;5000720;28;19925;-77
2022/05/21 02:47:40;;;;;;;;;;;;;;;;;;5028060;28;19933;-77
2022/05/21 02:50:08;;;;;;;;;;;;;;;;;;5016742;28;19921;-77
2022/05/21 02:52:33;;;;;;;;;;;;;;;;;;5011257;28;20371;-77
2022/05/21 02:54:58;;;;;;;;;;;;;;;;;;4998885;28;19926;-77
2022/05/21 02:57:24;;;;;;;;;;;;;;;;;;5001545;28;20000;-77
2022/05/21 02:59:50;;;;;;;;;;;;;;;;;;5018691;28;19925;-77
2022/05/21 03:02:16;;;;;;;;;;;;;;;;;;5000869;28;20362;-77
2022/05/21 03:04:42;;;;;;;;;;;;;;;;;;5015282;28;19917;-77
2022/05/21 03:07:07;;;;;;;;;;;;;;;;;;5021037;28;19921;-77
2022/05/21 03:12:17;;;;;;;;;;;;;;;;;;5039305;28;19917;-77
2022/05/21 03:14:43;;;;;;;;;;;;;;;;;;5038854;28;19924;-77
2022/05/21 03:17:08;;;;;;;;;;;;;;;;;;5021835;28;19917;-77
2022/05/21 03:19:34;;;;;;;;;;;;;;;;;;5005631;28;19935;-77
2022/05/21 03:22:01;;;;;;;;;;;;;;;;;;5005542;28;20278;-78
2022/05/21 03:24:26;;;;;;;;;;;;;;;;;;5004987;28;19917;-77
2022/05/21 03:26:52;;;;;;;;;;;;;;;;;;5039278;28;19927;-78
2022/05/21 03:29:18;;;;;;;;;;;;;;;;;;5004199;28;19921;-77
2022/05/21 03:31:43;;;;;;;;;;;;;;;;;;5019833;28;19921;-77
2022/05/21 03:34:09;;;;;;;;;;;;;;;;;;4992415;28;19967;-77
2022/05/21 03:36:36;;;;;;;;;;;;;;;;;;4982706;28;19917;-77
2022/05/21 03:39:02;;;;;;;;;;;;;;;;;;4999754;28;20378;-77
2022/05/21 03:41:27;;;;;;;;;;;;;;;;;;5017387;28;19914;-77
2022/05/21 03:43:54;;;;;;;;;;;;;;;;;;4983533;28;20294;-77
2022/05/21 03:46:19;;;;;;;;;;;;;;;;;;4999210;28;19929;-77
2022/05/21 03:48:45;;;;;;;;;;;;;;;;;;4999738;28;19917;-77
2022/05/21 03:51:11;;;;;;;;;;;;;;;;;;4999656;28;19926;-77
2022/05/21 03:53:37;;;;;;;;;;;;;;;;;;5024290;28;19921;-77
2022/05/21 03:56:02;;;;;;;;;;;;;;;;;;5016822;28;19917;-77
2022/05/21 03:58:28;;;;;;;;;;;;;;;;;;5031771;28;19924;-78
2022/05/21 04:00:54;;;;;;;;;;;;;;;;;;5020564;28;19921;-77
2022/05/21 04:03:20;;;;;;;;;;;;;;;;;;5038305;28;20290;-77
2022/05/21 04:05:47;;;;;;;;;;;;;;;;;;5015795;28;20024;-78
2022/05/21 04:08:15;;;;;;;;;;;;;;;;;;5007755;28;20388;-78
2022/05/21 04:10:40;;;;;;;;;;;;;;;;;;4992155;28;19925;-78
2022/05/21 04:13:06;;;;;;;;;;;;;;;;;;4996528;28;19918;-77
2022/05/21 04:15:34;;;;;;;;;;;;;;;;;;4990768;28;19925;-77
2022/05/21 04:18:00;;;;;;;;;;;;;;;;;;4996295;28;20004;-77
2022/05/21 04:20:25;;;;;;;;;;;;;;;;;;4980166;28;20260;-77
2022/05/21 04:22:51;;;;;;;;;;;;;;;;;;4976907;28;20056;-77
2022/05/21 04:25:16;;;;;;;;;;;;;;;;;;4996836;28;19953;-77
2022/05/21 04:27:42;;;;;;;;;;;;;;;;;;4996772;28;19917;-78
2022/05/21 04:30:09;;;;;;;;;;;;;;;;;;4997683;28;19918;-78
2022/05/21 04:32:35;;;;;;;;;;;;;;;;;;4981322;28;20375;-77
2022/05/21 04:35:00;;;;;;;;;;;;;;;;;;4995025;28;19918;-77
2022/05/21 04:37:26;;;;;;;;;;;;;;;;;;4976810;28;20013;-77
2022/05/21 04:39:52;;;;;;;;;;;;;;;;;;5034087;28;19960;-77
2022/05/21 04:42:17;;;;;;;;;;;;;;;;;;5035820;28;19964;-77
2022/05/21 04:44:42;;;;;;;;;;;;;;;;;;5035785;28;19917;-77
2022/05/21 04:47:08;;;;;;;;;;;;;;;;;;5035862;28;19917;-77
2022/05/21 04:49:34;;;;;;;;;;;;;;;;;;5011127;28;19976;-77
2022/05/21 04:52:03;;;;;;;;;;;;;;;;;;5015426;28;19925;-77
2022/05/21 04:54:29;;;;;;;;;;;;;;;;;;5008450;28;19922;-77
2022/05/21 04:56:54;;;;;;;;;;;;;;;;;;5015028;28;20310;-77
2022/05/21 04:59:19;;;;;;;;;;;;;;;;;;5014176;28;19917;-77
2022/05/21 05:01:44;;;;;;;;;;;;;;;;;;5015605;28;19917;-79
2022/05/21 05:04:10;;;;;;;;;;;;;;;;;;5001129;28;19917;-79
2022/05/21 05:06:36;;;;;;;;;;;;;;;;;;5015886;28;19922;-75
2022/05/21 05:09:02;;;;;;;;;;;;;;;;;;4997188;28;20411;-76
2022/05/21 05:11:27;;;;;;;;;;;;;;;;;;4992991;28;19925;-76
2022/05/21 05:13:53;;;;;;;;;;;;;;;;;;5008715;28;20391;-78
2022/05/21 05:16:18;;;;;;;;;;;;;;;;;;5014932;28;20004;-78
2022/05/21 05:18:43;;;;;;;;;;;;;;;;;;5015266;28;19922;-77
2022/05/21 05:21:08;;;;;;;;;;;;;;;;;;5014968;28;19929;-77
2022/05/21 05:23:34;;;;;;;;;;;;;;;;;;5013499;28;19922;-76
2022/05/21 05:25:59;;;;;;;;;;;;;;;;;;5013688;28;19956;-77
2022/05/21 05:28:25;;;;;;;;;;;;;;;;;;5013202;28;20270;-77
2022/05/21 05:30:52;;;;;;;;;;;;;;;;;;5014714;28;19917;-77
2022/05/21 05:33:18;;;;;;;;;;;;;;;;;;5014459;28;20337;-76
2022/05/21 05:35:44;;;;;;;;;;;;;;;;;;5013484;28;19968;-77
2022/05/21 05:38:11;;;;;;;;;;;;;;;;;;5015091;28;19923;-77
2022/05/21 05:40:39;;;;;;;;;;;;;;;;;;4997411;28;19913;-77
2022/05/21 05:43:05;;;;;;;;;;;;;;;;;;5011672;28;19925;-78
2022/05/21 05:45:30;;;;;;;;;;;;;;;;;;4994819;28;20245;-76
2022/05/21 05:47:56;;;;;;;;;;;;;;;;;;5021496;28;20384;-75
2022/05/21 05:50:22;;;;;;;;;;;;;;;;;;5033465;28;19917;-77
2022/05/21 05:52:47;;;;;;;;;;;;;;;;;;5015256;28;19917;-77
2022/05/21 05:55:13;;;;;;;;;;;;;;;;;;5015857;28;20375;-78
2022/05/21 05:57:39;;;;;;;;;;;;;;;;;;5034512;28;19989;-77
2022/05/21 06:00:05;;;;;;;;;;;;;;;;;;4992227;28;19921;-76
2022/05/21 06:05:24;;;;;;;;;;;;;;;;;;5014467;28;19918;-77
2022/05/21 06:07:52;;;;;;;;;;;;;;;;;;5026058;28;19961;-77
2022/05/21 06:10:22;;;;;;;;;;;;;;;;;;5000463;28;19967;-77
2022/05/21 06:12:48;;;;;;;;;;;;;;;;;;5016912;28;19928;-77
2022/05/21 06:15:13;;;;;;;;;;;;;;;;;;4981023;28;19918;-76
2022/05/21 06:17:39;;;;;;;;;;;;;;;;;;5010954;28;19941;-76
2022/05/21 06:20:06;;;;;;;;;;;;;;;;;;4999193;28;19964;-76
2022/05/21 06:22:32;;;;;;;;;;;;;;;;;;5002092;28;20014;-76
2022/05/21 06:24:58;;;;;;;;;;;;;;;;;;4980000;28;19956;-76
2022/05/21 06:27:23;;;;;;;;;;;;;;;;;;4978938;28;19941;-75
2022/05/21 06:29:49;;;;;;;;;;;;;;;;;;4993954;28;19918;-76
2022/05/21 06:32:14;;;;;;;;;;;;;;;;;;4977033;28;19941;-76
2022/05/21 06:34:40;;;;;;;;;;;;;;;;;;4976682;28;19982;-76
2022/05/21 06:37:06;;;;;;;;;;;;;;;;;;4979611;28;19917;-78
2022/05/21 06:39:32;;;;;;;;;;;;;;;;;;4996136;28;19918;-77
2022/05/21 06:41:58;;;;;;;;;;;;;;;;;;5013311;28;19941;-77
2022/05/21 06:44:23;;;;;;;;;;;;;;;;;;4996130;28;19918;-77
2022/05/21 06:46:49;;;;;;;;;;;;;;;;;;4995856;28;20383;-76
2022/05/21 06:49:17;;;;;;;;;;;;;;;;;;4996059;28;19917;-77
2022/05/21 06:51:42;;;;;;;;;;;;;;;;;;5013268;28;19918;-77
2022/05/21 06:54:08;;;;;;;;;;;;;;;;;;5003863;28;20043;-77
2022/05/21 06:56:34;;;;;;;;;;;;;;;;;;5012314;28;19989;-77
2022/05/21 06:58:59;;;;;;;;;;;;;;;;;;5020799;28;20438;-76
2022/05/21 07:01:25;;;;;;;;;;;;;;;;;;5015508;28;20256;-77
2022/05/21 07:03:51;;;;;;;;;;;;;;;;;;5029835;28;20007;-77
2022/05/21 07:09:01;;;;;;;;;;;;;;;;;;5001534;28;19965;-77
2022/05/21 07:11:28;;;;;;;;;;;;;;;;;;4977782;28;20338;-77
2022/05/21 07:13:53;;;;;;;;;;;;;;;;;;4993915;28;19925;-77
2022/05/21 07:16:18;;;;;;;;;;;;;;;;;;4995146;28;19921;-77
2022/05/21 07:18:44;;;;;;;;;;;;;;;;;;4997320;28;19922;-77
2022/05/21 07:21:15;;;;;;;;;;;;;;;;;;5013629;28;19918;-78
2022/05/21 07:23:41;;;;;;;;;;;;;;;;;;5014418;28;19940;-77
2022/05/21 07:26:07;;;;;;;;;;;;;;;;;;5017096;28;19921;-78
2022/05/21 07:28:33;;;;;;;;;;;;;;;;;;4996968;28;19917;-78
2022/05/21 07:30:58;;;;;;;;;;;;;;;;;;5014153;28;19940;-78
2022/05/21 07:33:24;;;;;;;;;;;;;;;;;;4998749;28;19926;-78
2022/05/21 07:35:49;;;;;;;;;;;;;;;;;;5013387;28;19918;-78
2022/05/21 07:38:15;;;;;;;;;;;;;;;;;;4997720;28;19940;-78
2022/05/21 07:40:41;;;;;;;;;;;;;;;;;;5000202;28;19918;-79
2022/05/21 07:43:10;;;;;;;;;;;;;;;;;;5017216;28;20007;-78
2022/05/21 07:45:39;;;;;;;;;;;;;;;;;;5010550;28;19921;-78
2022/05/21 07:48:10;;;;;;;;;;;;;;;;;;5000154;28;20307;-78
2022/05/21 07:50:40;;;;;;;;;;;;;;;;;;5013902;28;19922;-78
2022/05/21 07:53:09;;;;;;;;;;;;;;;;;;5014863;28;19952;-78
2022/05/21 07:55:35;;;;;;;;;;;;;;;;;;4984062;28;19921;-78
2022/05/21 07:58:03;;;;;;;;;;;;;;;;;;4984202;28;19960;-79
2022/05/21 08:00:29;;;;;;;;;;;;;;;;;;5000535;28;19918;-79
2022/05/21 08:02:55;;;;;;;;;;;;;;;;;;4970100;28;19921;-80
2022/05/21 08:05:21;;;;;;;;;;;;;;;;;;4987246;28;19925;-80
2022/05/21 08:07:50;;;;;;;;;;;;;;;;;;4970869;28;19917;-81
2022/05/21 08:10:16;;;;;;;;;;;;;;;;;;4983871;28;19940;-82
2022/05/21 08:12:41;;;;;;;;;;;;;;;;;;5004775;28;20466;-80
2022/05/21 08:15:06;;;;;;;;;;;;;;;;;;5002615;28;19918;-80
2022/05/21 08:17:32;;;;;;;;;;;;;;;;;;5021157;28;20020;-81
2022/05/21 08:19:58;;;;;;;;;;;;;;;;;;5001061;28;19924;-81
2022/05/21 08:27:52;;;;;;;;;;;;;;;;;;4994077;28;19922;-81
2022/05/21 08:30:17;;;;;;;;;;;;;;;;;;4998655;28;19925;-81
2022/05/21 08:32:42;;;;;;;;;;;;;;;;;;4982537;28;19917;-83
2022/05/21 08:35:08;;;;;;;;;;;;;;;;;;4983691;28;19918;-82
2022/05/21 08:37:35;;;;;;;;;;;;;;;;;;4999432;28;19984;-83
2022/05/21 08:40:01;;;;;;;;;;;;;;;;;;5000999;28;19918;-79
2022/05/21 08:42:33;;;;;;;;;;;;;;;;;;5003003;28;19964;-81
2022/05/21 08:45:09;;;;;;;;;;;;;;;;;;4984997;28;19918;-80
2022/05/21 08:47:36;;;;;;;;;;;;;;;;;;4999922;28;20017;-82
2022/05/21 08:50:14;;;;;;;;;;;;;;;;;;4985429;28;20323;-82
2022/05/21 08:52:42;;;;;;;;;;;;;;;;;;4999437;28;19918;-81
2022/05/21 08:55:16;;;;;;;;;;;;;;;;;;5015076;28;21223;-79
2022/05/21 08:57:43;;;;;;;;;;;;;;;;;;5002687;28;20008;-82
2022/05/21 09:00:31;;;;;;;;;;;;;;;;;;5000509;28;19918;-81
2022/05/21 09:02:56;;;;;;;;;;;;;;;;;;4970571;28;19918;-81
2022/05/21 09:05:22;;;;;;;;;;;;;;;;;;5017676;28;20425;-81
2022/05/21 09:08:07;;;;;;;;;;;;;;;;;;5018447;28;19918;-81
2022/05/21 09:10:45;;;;;;;;;;;;;;;;;;5003006;28;19917;-81
2022/05/21 09:13:20;;;;;;;;;;;;;;;;;;5003756;28;19918;-80
2022/05/21 09:18:31;;;;;;;;;;;;;;;;;;5011142;28;19945;-83
2022/05/21 09:21:13;;;;;;;;;;;;;;;;;;5017234;28;19917;-83
2022/05/21 09:23:45;;;;;;;;;;;;;;;;;;5027541;28;19948;-81
2022/05/21 09:26:11;;;;;;;;;;;;;;;;;;5000964;28;19926;-81
2022/05/21 09:28:39;;;;;;;;;;;;;;;;;;5010647;28;19960;-82
2022/05/21 09:31:06;;;;;;;;;;;;;;;;;;5017543;28;20303;-81
2022/05/21 09:33:36;;;;;;;;;;;;;;;;;;5010765;28;19914;-80
2022/05/21 09:36:01;;;;;;;;;;;;;;;;;;5017114;28;19917;-81
2022/05/21 09:38:31;;;;;;;;;;;;;;;;;;4993997;28;20004;-80
2022/05/21 09:41:13;;;;;;;;;;;;;;;;;;5019145;28;19917;-82
2022/05/21 09:46:31;;;;;;;;;;;;;;;;;;5019285;28;19928;-83
2022/05/21 09:49:18;;;;;;;;;;;;;;;;;;5019701;28;19953;-83
2022/05/21 09:51:52;;;;;;;;;;;;;;;;;;4996826;28;20414;-80
2022/05/21 09:54:21;;;;;;;;;;;;;;;;;;4999820;28;19944;-79
2022/05/21 09:56:48;;;;;;;;;;;;;;;;;;5001119;28;19925;-81
2022/05/21 09:59:16;;;;;;;;;;;;;;;;;;5017651;28;20012;-80
2022/05/21 10:01:44;;;;;;;;;;;;;;;;;;5012975;28;19917;-81
2022/05/21 10:04:19;;;;;;;;;;;;;;;;;;5034692;28;20359;-80
2022/05/21 10:07:03;;;;;;;;;;;;;;;;;;5032051;28;19959;-81
2022/05/21 10:12:18;;;;;;;;;;;;;;;;;;5036655;28;20260;-81
2022/05/21 10:14:48;;;;;;;;;;;;;;;;;;5036474;28;19924;-81
2022/05/21 10:17:16;;;;;;;;;;;;;;;;;;5019843;28;19971;-81
2022/05/21 10:19:42;;;;;;;;;;;;;;;;;;5016149;28;19921;-83
2022/05/21 10:22:26;;;;;;;;;;;;;;;;;;5036213;28;19971;-82
2022/05/21 10:24:55;;;;;;;;;;;;;;;;;;5036912;28;19960;-82
2022/05/21 10:27:36;;;;;;;;;;;;;;;;;;5012008;28;20375;-82
2022/05/21 10:30:06;;;;;;;;;;;;;;;;;;5036407;28;19924;-81
2022/05/21 10:32:38;;;;;;;;;;;;;;;;;;5030346;28;20272;-81
2022/05/21 10:35:30;;;;;;;;;;;;;;;;;;5004253;28;19924;-82
2022/05/21 10:38:09;;;;;;;;;;;;;;;;;;5015991;28;19918;-80
2022/05/21 10:40:42;;;;;;;;;;;;;;;;;;5014060;28;20354;-81
2022/05/21 10:43:14;;;;;;;;;;;;;;;;;;5013310;28;19921;-81
2022/05/21 10:45:41;;;;;;;;;;;;;;;;;;5011499;28;19932;-79
2022/05/21 10:48:13;;;;;;;;;;;;;;;;;;5010364;28;20342;-81
2022/05/21 10:50:44;;;;;;;;;;;;;;;;;;5020332;28;19924;-83
2022/05/21 10:53:09;;;;;;;;;;;;;;;;;;4983350;28;19922;-82
2022/05/21 10:55:58;;;;;;;;;;;;;;;;;;4992945;28;19925;-81
2022/05/21 10:58:35;;;;;;;;;;;;;;;;;;4983117;28;20398;-82
2022/05/21 11:01:04;;;;;;;;;;;;;;;;;;4977837;28;19925;-84
2022/05/21 11:03:39;;;;;;;;;;;;;;;;;;4979648;28;20388;-84
2022/05/21 11:06:04;;;;;;;;;;;;;;;;;;4980416;28;19926;-82
2022/05/21 11:08:45;;;;;;;;;;;;;;;;;;4980408;28;19940;-80
2022/05/21 11:11:10;;;;;;;;;;;;;;;;;;4979690;28;20008;-82
2022/05/21 11:13:35;;;;;;;;;;;;;;;;;;4981744;28;20335;-82
2022/05/21 11:16:09;;;;;;;;;;;;;;;;;;4981304;28;19918;-83
2022/05/21 11:18:34;;;;;;;;;;;;;;;;;;4980880;28;19929;-81
2022/05/21 11:21:02;;;;;;;;;;;;;;;;;;4981533;28;19922;-83
2022/05/21 11:23:42;;;;;;;;;;;;;;;;;;4965245;28;19992;-82
2022/05/21 11:26:14;;;;;;;;;;;;;;;;;;4971260;28;20431;-81
2022/05/21 11:28:43;;;;;;;;;;;;;;;;;;4972069;28;19917;-82
2022/05/21 11:37:18;;;;;;;;;;;;;;;;;;4986364;28;19917;-83
2022/05/21 11:39:32;;;;;;;;;;;;;;;;;;4986316;28;19918;-83
2022/05/21 11:42:00;;;;;;;;;;;;;;;;;;5003968;28;19932;-83
2022/05/21 11:47:20;;;;;;;;;;;;;;;;;;4987025;28;19921;-83
2022/05/21 11:49:45;;;;;;;;;;;;;;;;;;4986166;28;19925;-83
2022/05/21 11:52:26;;;;;;;;;;;;;;;;;;4966197;28;19922;-83
2022/05/21 11:54:58;;;;;;;;;;;;;;;;;;4995577;28;20375;-84
2022/05/21 11:57:29;;;;;;;;;;;;;;;;;;4951639;28;19926;-83
2022/05/21 11:59:55;;;;;;;;;;;;;;;;;;4973815;28;19922;-82
2022/05/21 12:02:31;;;;;;;;;;;;;;;;;;4966302;28;20283;-83
2022/05/21 12:05:01;;;;;;;;;;;;;;;;;;4966133;28;20328;-83
2022/05/21 12:07:46;;;;;;;;;;;;;;;;;;4965882;28;19973;-82
2022/05/21 12:10:17;;;;;;;;;;;;;;;;;;4982118;28;20025;-83
2022/05/21 12:13:01;;;;;;;;;;;;;;;;;;4982872;28;19918;-83
2022/05/21 12:15:39;;;;;;;;;;;;;;;;;;4994830;28;20433;-82
2022/05/21 12:18:26;;;;;;;;;;;;;;;;;;4969265;28;19924;-82
2022/05/21 12:20:54;;;;;;;;;;;;;;;;;;4968608;28;20410;-82
2022/05/21 12:23:26;;;;;;;;;;;;;;;;;;4984864;28;19917;-82
2022/05/21 12:25:53;;;;;;;;;;;;;;;;;;4968198;28;19922;-83
2022/05/21 12:28:19;;;;;;;;;;;;;;;;;;4983400;28;19918;-79
2022/05/21 12:30:44;;;;;;;;;;;;;;;;;;4967030;28;20410;-79
2022/05/21 12:33:22;;;;;;;;;;;;;;;;;;4983424;28;19922;-79
2022/05/21 12:35:55;;;;;;;;;;;;;;;;;;4984048;28;20302;-82
2022/05/21 12:38:27;;;;;;;;;;;;;;;;;;4967661;28;19939;-81
2022/05/21 12:41:22;;;;;;;;;;;;;;;;;;4979877;28;19925;-82
2022/05/21 12:43:49;;;;;;;;;;;;;;;;;;4955257;28;19918;-82
2022/05/21 12:46:28;;;;;;;;;;;;;;;;;;4963741;28;20371;-82
2022/05/21 12:48:55;;;;;;;;;;;;;;;;;;4967123;28;19917;-81
2022/05/21 12:51:35;;;;;;;;;;;;;;;;;;4993777;28;19998;-85
2022/05/21 12:54:03;;;;;;;;;;;;;;;;;;4993659;28;19922;-84
2022/05/21 12:56:36;;;;;;;;;;;;;;;;;;5001467;28;19918;-82
2022/05/21 12:59:11;;;;;;;;;;;;;;;;;;5010325;28;19940;-83
2022/05/21 13:01:43;;;;;;;;;;;;;;;;;;5018248;28;19948;-81
2022/05/21 13:04:25;;;;;;;;;;;;;;;;;;5000035;28;19977;-82
2022/05/21 13:06:56;;;;;;;;;;;;;;;;;;5014062;28;19989;-84
2022/05/21 13:09:22;;;;;;;;;;;;;;;;;;5014923;28;20403;-83
2022/05/21 13:11:47;;;;;;;;;;;;;;;;;;5018615;28;19913;-84
2022/05/21 13:14:18;;;;;;;;;;;;;;;;;;5000176;28;20013;-84
2022/05/21 13:16:54;;;;;;;;;;;;;;;;;;5016619;28;19918;-84
2022/05/21 13:19:23;;;;;;;;;;;;;;;;;;4999898;28;19953;-83
2022/05/21 13:22:09;;;;;;;;;;;;;;;;;;4982550;28;20009;-83
2022/05/21 13:24:35;;;;;;;;;;;;;;;;;;5015045;28;20016;-85
2022/05/21 13:27:08;;;;;;;;;;;;;;;;;;4998714;28;19937;-83
2022/05/21 13:29:34;;;;;;;;;;;;;;;;;;5027093;28;19986;-83
2022/05/21 13:32:18;;;;;;;;;;;;;;;;;;5039760;28;20374;-85
2022/05/21 13:34:46;;;;;;;;;;;;;;;;;;5013056;28;19918;-82
2022/05/21 13:37:11;;;;;;;;;;;;;;;;;;5013924;28;20279;-82
2022/05/21 13:39:36;;;;;;;;;;;;;;;;;;5014390;28;20359;-84
2022/05/21 13:42:05;;;;;;;;;;;;;;;;;;5014083;28;20387;-84
2022/05/21 13:44:34;;;;;;;;;;;;;;;;;;4998624;28;19918;-85
2022/05/21 13:47:01;;;;;;;;;;;;;;;;;;5012803;28;19936;-78
2022/05/21 13:49:35;;;;;;;;;;;;;;;;;;5012909;28;20379;-79
2022/05/21 13:52:01;;;;;;;;;;;;;;;;;;4997163;28;19917;-78
2022/05/21 13:54:28;;;;;;;;;;;;;;;;;;4995722;28;20009;-80
2022/05/21 13:57:10;;;;;;;;;;;;;;;;;;4996297;28;19917;-79
2022/05/21 13:59:46;;;;;;;;;;;;;;;;;;4995888;28;19918;-79
2022/05/21 14:02:27;;;;;;;;;;;;;;;;;;4996606;28;19929;-80
2022/05/21 14:04:53;;;;;;;;;;;;;;;;;;5023579;28;20378;-82
2022/05/21 14:07:18;;;;;;;;;;;;;;;;;;5019082;28;19929;-79
2022/05/21 14:09:45;;;;;;;;;;;;;;;;;;5020212;28;19921;-78
2022/05/21 14:12:18;;;;;;;;;;;;;;;;;;5036529;28;19917;-78
2022/05/21 14:14:44;;;;;;;;;;;;;;;;;;5016950;28;20020;-84
2022/05/21 14:17:31;;;;;;;;;;;;;;;;;;5022081;28;19960;-79
2022/05/21 14:20:00;;;;;;;;;;;;;;;;;;5019957;28;19924;-79
2022/05/21 14:22:25;;;;;;;;;;;;;;;;;;5019008;28;19975;-80
2022/05/21 14:24:51;;;;;;;;;;;;;;;;;;5022291;28;19914;-79
2022/05/21 14:27:18;;;;;;;;;;;;;;;;;;5003911;28;19921;-79
2022/05/21 14:29:45;;;;;;;;;;;;;;;;;;5020558;28;19928;-80
2022/05/21 14:32:11;;;;;;;;;;;;;;;;;;5004252;28;19917;-80
2022/05/21 14:34:36;;;;;;;;;;;;;;;;;;5020603;28;20055;-80
2022/05/21 14:37:01;;;;;;;;;;;;;;;;;;5020510;28;19971;-80
2022/05/21 14:39:28;;;;;;;;;;;;;;;;;;5019829;28;19917;-80
2022/05/21 14:41:57;;;;;;;;;;;;;;;;;;5003872;28;20020;-80
2022/05/21 14:44:24;;;;;;;;;;;;;;;;;;5003288;28;19940;-80
2022/05/21 14:49:35;;;;;;;;;;;;;;;;;;5001752;28;19965;-80
2022/05/21 14:54:46;;;;;;;;;;;;;;;;;;5001616;28;19922;-80
2022/05/21 14:57:13;;;;;;;;;;;;;;;;;;5000056;28;19988;-80
2022/05/21 14:59:39;;;;;;;;;;;;;;;;;;5002402;28;19917;-80
2022/05/21 15:02:05;;;;;;;;;;;;;;;;;;4985848;28;19971;-80
2022/05/21 15:04:31;;;;;;;;;;;;;;;;;;4985399;28;19921;-81
2022/05/21 15:06:57;;;;;;;;;;;;;;;;;;4983858;28;20016;-80
2022/05/21 15:09:23;;;;;;;;;;;;;;;;;;4984189;28;20371;-80
2022/05/21 15:11:48;;;;;;;;;;;;;;;;;;4985293;28;19925;-80
2022/05/21 15:14:14;;;;;;;;;;;;;;;;;;5002262;28;20394;-78
2022/05/21 15:16:40;;;;;;;;;;;;;;;;;;4984202;28;19925;-80
2022/05/21 15:19:05;;;;;;;;;;;;;;;;;;5000003;28;19923;-80
2022/05/21 15:21:32;;;;;;;;;;;;;;;;;;4984083;28;19917;-80
2022/05/21 15:23:57;;;;;;;;;;;;;;;;;;4998609;28;19939;-80
2022/05/21 15:26:23;;;;;;;;;;;;;;;;;;5005126;28;19925;-80
2022/05/21 15:28:49;;;;;;;;;;;;;;;;;;5023149;28;19971;-80
2022/05/21 15:31:15;;;;;;;;;;;;;;;;;;5002521;28;19923;-80
2022/05/21 15:33:40;;;;;;;;;;;;;;;;;;5021022;28;20008;-80
2022/05/21 15:36:06;;;;;;;;;;;;;;;;;;5003206;28;19917;-80
2022/05/21 15:38:32;;;;;;;;;;;;;;;;;;5003235;28;19925;-80
2022/05/21 15:40:57;;;;;;;;;;;;;;;;;;5003296;28;20379;-80
2022/05/21 15:43:23;;;;;;;;;;;;;;;;;;5003178;28;19917;-80
2022/05/21 15:45:52;;;;;;;;;;;;;;;;;;5020086;28;19922;-80
2022/05/21 15:48:18;;;;;;;;;;;;;;;;;;5020490;28;19925;-80
2022/05/21 15:50:43;;;;;;;;;;;;;;;;;;5002962;28;19918;-80
2022/05/21 15:53:09;;;;;;;;;;;;;;;;;;5002228;28;20338;-80
2022/05/21 15:55:36;;;;;;;;;;;;;;;;;;5018413;28;20323;-80
2022/05/21 15:58:01;;;;;;;;;;;;;;;;;;5001616;28;19917;-80
2022/05/21 16:00:28;;;;;;;;;;;;;;;;;;5021924;28;20314;-81
2022/05/21 16:02:53;;;;;;;;;;;;;;;;;;5005796;28;19924;-79
2022/05/21 16:05:19;;;;;;;;;;;;;;;;;;5021878;28;19917;-80
2022/05/21 16:07:45;;;;;;;;;;;;;;;;;;5021581;28;20294;-80
2022/05/21 16:10:13;;;;;;;;;;;;;;;;;;5021477;28;19967;-80
2022/05/21 16:12:39;;;;;;;;;;;;;;;;;;5029215;28;19918;-79
2022/05/21 16:15:06;;;;;;;;;;;;;;;;;;5018415;28;19917;-79
2022/05/21 16:17:32;;;;;;;;;;;;;;;;;;5019312;28;20004;-78
2022/05/21 16:19:57;;;;;;;;;;;;;;;;;;5018153;28;19917;-78
2022/05/21 16:22:24;;;;;;;;;;;;;;;;;;5016338;28;19925;-77
2022/05/21 16:24:50;;;;;;;;;;;;;;;;;;4983320;28;19917;-78
2022/05/21 16:27:21;;;;;;;;;;;;;;;;;;4981232;28;20421;-78
2022/05/21 16:29:48;;;;;;;;;;;;;;;;;;4988596;28;20445;-78
2022/05/21 16:32:15;;;;;;;;;;;;;;;;;;4998543;28;19917;-78
2022/05/21 16:34:40;;;;;;;;;;;;;;;;;;5016265;28;19967;-78
2022/05/21 16:37:06;;;;;;;;;;;;;;;;;;4999760;28;19913;-78
2022/05/21 16:39:33;;;;;;;;;;;;;;;;;;4984039;28;19971;-78
2022/05/21 16:41:58;;;;;;;;;;;;;;;;;;5016279;28;19917;-78
2022/05/21 16:44:24;;;;;;;;;;;;;;;;;;5016229;28;19924;-78
2022/05/21 16:46:49;;;;;;;;;;;;;;;;;;4999467;28;19956;-78
2022/05/21 16:49:14;;;;;;;;;;;;;;;;;;4999315;28;20371;-78
2022/05/21 16:51:40;;;;;;;;;;;;;;;;;;5016046;28;19921;-78
2022/05/21 16:54:06;;;;;;;;;;;;;;;;;;5003569;28;19969;-77
2022/05/21 16:56:31;;;;;;;;;;;;;;;;;;5016092;28;19957;-78
2022/05/21 16:58:56;;;;;;;;;;;;;;;;;;5012172;28;19917;-78
2022/05/21 17:01:22;;;;;;;;;;;;;;;;;;4984544;28;19918;-78
2022/05/21 17:03:50;;;;;;;;;;;;;;;;;;4979513;28;19917;-78
2022/05/21 17:06:16;;;;;;;;;;;;;;;;;;4995634;28;19921;-78
2022/05/21 17:08:43;;;;;;;;;;;;;;;;;;4997012;28;19996;-78
2022/05/21 17:11:08;;;;;;;;;;;;;;;;;;5011057;28;19922;-78
2022/05/21 17:13:34;;;;;;;;;;;;;;;;;;5008054;28;20318;-77
2022/05/21 17:15:59;;;;;;;;;;;;;;;;;;5015109;28;19918;-78
2022/05/21 17:18:25;;;;;;;;;;;;;;;;;;5008135;28;19947;-78
2022/05/21 17:20:50;;;;;;;;;;;;;;;;;;5014815;28;19917;-77
2022/05/21 17:23:16;;;;;;;;;;;;;;;;;;5014610;28;19924;-77
2022/05/21 17:25:42;;;;;;;;;;;;;;;;;;5015633;28;19917;-77
2022/05/21 17:30:51;;;;;;;;;;;;;;;;;;5010910;28;19917;-78
2022/05/21 17:33:20;;;;;;;;;;;;;;;;;;5016022;28;19957;-77
2022/05/21 17:35:49;;;;;;;;;;;;;;;;;;5010615;28;19995;-78
2022/05/21 17:38:16;;;;;;;;;;;;;;;;;;5014042;28;20433;-77
2022/05/21 17:40:42;;;;;;;;;;;;;;;;;;5034932;28;19917;-77